Time;durP1;ratioP1;P1;durP2;ratioP2;P2;SDS_P1;SDS_P2;PMS_P1;PMS_P2;Temp;Humidity;BMP_temperature;BMP_pressure;BME280_temperature;BME280_humidity;BME280_pressure;Samples;Min_cycle;Max_cycle;Signal;HPM_P1;HPM_P2
2022/03/04 00:00:10;;;;;;;39.87;15.13;;;;;;;;;;5006138;28;20446;-79
2022/03/04 00:02:37;;;;;;;37.80;14.80;;;;;;;;;;5008583;28;20486;-77
2022/03/04 00:05:05;;;;;;;36.80;14.13;;;;;;;;;;5007427;28;20525;-79
2022/03/04 00:07:32;;;;;;;42.90;14.73;;;;;;;;;;5002826;28;20475;-78
2022/03/04 00:09:59;;;;;;;41.30;14.80;;;;;;;;;;5000660;28;20821;-78
2022/03/04 00:12:26;;;;;;;43.43;14.50;;;;;;;;;;5006995;28;20483;-79
2022/03/04 00:14:55;;;;;;;39.67;14.90;;;;;;;;;;5007495;28;20470;-79
2022/03/04 00:17:22;;;;;;;36.27;15.03;;;;;;;;;;5007665;28;20478;-78
2022/03/04 00:19:49;;;;;;;38.73;14.93;;;;;;;;;;5004637;28;20931;-78
2022/03/04 00:22:16;;;;;;;42.13;14.87;;;;;;;;;;5005174;28;20474;-80
2022/03/04 00:24:43;;;;;;;40.77;14.70;;;;;;;;;;5009331;28;20550;-80
2022/03/04 00:27:11;;;;;;;35.63;14.10;;;;;;;;;;5015291;28;20515;-80
2022/03/04 00:29:38;;;;;;;36.20;14.97;;;;;;;;;;5014138;28;20486;-79
2022/03/04 00:32:07;;;;;;;37.53;14.10;;;;;;;;;;5014863;28;20479;-80
2022/03/04 00:34:34;;;;;;;36.33;14.33;;;;;;;;;;5010026;28;20498;-79
2022/03/04 00:37:01;;;;;;;36.50;15.13;;;;;;;;;;5008221;28;20455;-80
2022/03/04 00:39:28;;;;;;;38.00;13.40;;;;;;;;;;5008107;28;20502;-78
2022/03/04 00:41:55;;;;;;;34.30;13.93;;;;;;;;;;5005496;28;20483;-77
2022/03/04 00:44:23;;;;;;;36.53;14.10;;;;;;;;;;5002546;28;20535;-78
2022/03/04 00:46:50;;;;;;;41.87;14.83;;;;;;;;;;5007469;28;20578;-77
2022/03/04 00:49:18;;;;;;;38.90;13.97;;;;;;;;;;5007956;28;20470;-77
2022/03/04 00:51:46;;;;;;;38.90;14.27;;;;;;;;;;5006376;28;20803;-77
2022/03/04 00:54:13;;;;;;;35.53;14.13;;;;;;;;;;5000564;28;20455;-77
2022/03/04 00:56:40;;;;;;;35.87;14.33;;;;;;;;;;5001246;28;20936;-78
2022/03/04 00:59:07;;;;;;;41.30;15.17;;;;;;;;;;5007952;28;20550;-78
2022/03/04 01:01:34;;;;;;;42.10;16.07;;;;;;;;;;5008726;28;20972;-77
2022/03/04 01:04:01;;;;;;;40.27;14.37;;;;;;;;;;5004421;28;20970;-77
2022/03/04 01:06:30;;;;;;;45.60;14.90;;;;;;;;;;5007604;28;20455;-77
2022/03/04 01:08:57;;;;;;;36.27;14.23;;;;;;;;;;5003068;28;20487;-79
2022/03/04 01:11:24;;;;;;;34.63;13.73;;;;;;;;;;5004996;28;20452;-78
2022/03/04 01:13:51;;;;;;;37.57;14.03;;;;;;;;;;5007407;28;20496;-78
2022/03/04 01:16:19;;;;;;;45.77;16.70;;;;;;;;;;5008175;28;20499;-77
2022/03/04 01:18:46;;;;;;;38.77;15.23;;;;;;;;;;5010598;28;20452;-77
2022/03/04 01:21:14;;;;;;;44.00;14.63;;;;;;;;;;5008953;28;20494;-77
2022/03/04 01:23:42;;;;;;;38.10;14.37;;;;;;;;;;5006217;28;20491;-78
2022/03/04 01:26:10;;;;;;;44.13;14.87;;;;;;;;;;5005577;28;20475;-78
2022/03/04 01:28:37;;;;;;;44.80;15.67;;;;;;;;;;5005674;28;20534;-77
2022/03/04 01:31:04;;;;;;;42.73;16.50;;;;;;;;;;5004868;28;20454;-77
2022/03/04 01:33:31;;;;;;;44.27;15.20;;;;;;;;;;5009195;28;20486;-78
2022/03/04 01:35:59;;;;;;;39.13;14.47;;;;;;;;;;5012676;28;20457;-78
2022/03/04 01:38:26;;;;;;;41.30;14.67;;;;;;;;;;5010610;28;20478;-78
2022/03/04 01:40:54;;;;;;;35.93;14.23;;;;;;;;;;5008263;28;20462;-77
2022/03/04 01:43:21;;;;;;;39.67;14.73;;;;;;;;;;5019429;28;20488;-77
2022/03/04 01:45:49;;;;;;;37.47;14.43;;;;;;;;;;5011848;28;20519;-77
2022/03/04 01:48:16;;;;;;;37.77;14.37;;;;;;;;;;5013574;28;20888;-78
2022/03/04 01:50:43;;;;;;;38.07;14.50;;;;;;;;;;5012922;28;20495;-79
2022/03/04 01:53:10;;;;;;;36.50;14.53;;;;;;;;;;5011831;28;20479;-78
2022/03/04 01:55:37;;;;;;;41.50;13.57;;;;;;;;;;5013574;28;20555;-78
2022/03/04 01:58:06;;;;;;;39.50;14.30;;;;;;;;;;5013355;28;22161;-77
2022/03/04 02:00:33;;;;;;;39.90;14.50;;;;;;;;;;5010535;28;22069;-77
2022/03/04 02:03:00;;;;;;;31.43;13.20;;;;;;;;;;5010661;28;20511;-78
2022/03/04 02:05:27;;;;;;;41.10;14.37;;;;;;;;;;5011065;28;20452;-78
2022/03/04 02:07:55;;;;;;;38.43;14.93;;;;;;;;;;5010304;28;20498;-79
2022/03/04 02:10:22;;;;;;;34.23;13.20;;;;;;;;;;5013675;28;20452;-79
2022/03/04 02:12:49;;;;;;;36.70;12.97;;;;;;;;;;5012272;28;20468;-78
2022/03/04 02:15:18;;;;;;;41.47;14.80;;;;;;;;;;5017297;28;20442;-78
2022/03/04 02:17:45;;;;;;;39.17;13.97;;;;;;;;;;5014793;28;20899;-79
2022/03/04 02:20:12;;;;;;;34.17;13.40;;;;;;;;;;5012539;28;20456;-78
2022/03/04 02:22:41;;;;;;;35.53;13.70;;;;;;;;;;5017526;28;20590;-77
2022/03/04 02:25:09;;;;;;;36.80;14.00;;;;;;;;;;5017667;28;20467;-77
2022/03/04 02:27:36;;;;;;;39.40;14.23;;;;;;;;;;5017747;28;20471;-77
2022/03/04 02:30:04;;;;;;;36.73;13.97;;;;;;;;;;5017659;28;20487;-78
2022/03/04 02:32:31;;;;;;;42.90;14.87;;;;;;;;;;5016110;28;21693;-77
2022/03/04 02:34:58;;;;;;;34.83;12.33;;;;;;;;;;5017195;28;20547;-78
2022/03/04 02:37:26;;;;;;;38.13;13.83;;;;;;;;;;5016726;28;20478;-77
2022/03/04 02:39:54;;;;;;;34.80;13.80;;;;;;;;;;5019943;28;20475;-76
2022/03/04 02:42:22;;;;;;;40.30;14.37;;;;;;;;;;5020566;28;20922;-77
2022/03/04 02:44:49;;;;;;;37.83;14.37;;;;;;;;;;5012876;28;20987;-78
2022/03/04 02:47:16;;;;;;;33.27;13.80;;;;;;;;;;5012007;28;20568;-77
2022/03/04 02:49:43;;;;;;;38.30;14.53;;;;;;;;;;5012676;28;20489;-78
2022/03/04 02:52:11;;;;;;;35.73;13.80;;;;;;;;;;5002680;28;20855;-79
2022/03/04 02:54:38;;;;;;;38.67;14.63;;;;;;;;;;5003421;28;20549;-78
2022/03/04 02:57:06;;;;;;;42.83;14.47;;;;;;;;;;5001724;28;20486;-79
2022/03/04 02:59:34;;;;;;;39.57;13.80;;;;;;;;;;5000404;28;20526;-78
2022/03/04 03:02:01;;;;;;;38.07;13.53;;;;;;;;;;5001492;28;20558;-76
2022/03/04 03:04:28;;;;;;;38.43;13.73;;;;;;;;;;4997991;28;20463;-78
2022/03/04 03:06:55;;;;;;;35.43;13.70;;;;;;;;;;5003125;28;20550;-78
2022/03/04 03:09:22;;;;;;;35.63;13.80;;;;;;;;;;4999719;28;20490;-78
2022/03/04 03:11:49;;;;;;;37.87;12.93;;;;;;;;;;5002294;28;20498;-77
2022/03/04 03:14:18;;;;;;;34.03;12.70;;;;;;;;;;5007290;28;20550;-76
2022/03/04 03:16:45;;;;;;;39.00;14.13;;;;;;;;;;5000491;28;20530;-78
2022/03/04 03:19:12;;;;;;;36.20;12.87;;;;;;;;;;4999892;28;20447;-78
2022/03/04 03:21:39;;;;;;;34.07;13.17;;;;;;;;;;5001062;28;20821;-77
2022/03/04 03:24:07;;;;;;;40.50;13.80;;;;;;;;;;5004571;28;20543;-76
2022/03/04 03:26:34;;;;;;;37.03;12.77;;;;;;;;;;4999569;28;20458;-77
2022/03/04 03:29:03;;;;;;;40.97;13.30;;;;;;;;;;5008752;28;20484;-78
2022/03/04 03:31:32;;;;;;;34.83;12.90;;;;;;;;;;4998778;28;20467;-78
2022/03/04 03:33:59;;;;;;;35.50;12.43;;;;;;;;;;5004092;28;20495;-78
2022/03/04 03:36:26;;;;;;;41.50;13.83;;;;;;;;;;4997532;28;20547;-78
2022/03/04 03:38:53;;;;;;;37.03;12.73;;;;;;;;;;5002518;28;20538;-78
2022/03/04 03:41:20;;;;;;;35.03;13.10;;;;;;;;;;5002686;28;20538;-78
2022/03/04 03:43:47;;;;;;;36.80;12.83;;;;;;;;;;4997788;28;20567;-78
2022/03/04 03:46:15;;;;;;;32.70;12.33;;;;;;;;;;5003647;28;20455;-76
2022/03/04 03:48:43;;;;;;;37.10;14.40;;;;;;;;;;5003543;28;20574;-77
2022/03/04 03:51:11;;;;;;;36.23;13.13;;;;;;;;;;5004170;28;20451;-77
2022/03/04 03:53:39;;;;;;;33.60;12.63;;;;;;;;;;5000447;28;20480;-77
2022/03/04 03:56:06;;;;;;;37.63;13.67;;;;;;;;;;4999006;28;20909;-77
2022/03/04 03:58:33;;;;;;;37.73;12.80;;;;;;;;;;5004187;28;20453;-77
2022/03/04 04:01:00;;;;;;;37.77;12.20;;;;;;;;;;4999610;28;20562;-79
2022/03/04 04:03:28;;;;;;;31.50;12.13;;;;;;;;;;5003876;28;20495;-76
2022/03/04 04:05:56;;;;;;;35.27;13.57;;;;;;;;;;5004274;28;20518;-77
2022/03/04 04:08:23;;;;;;;35.03;12.30;;;;;;;;;;5008407;28;20555;-77
2022/03/04 04:10:51;;;;;;;36.97;12.90;;;;;;;;;;5004445;28;20454;-77
2022/03/04 04:13:18;;;;;;;40.40;13.33;;;;;;;;;;5004527;28;20478;-77
2022/03/04 04:15:45;;;;;;;37.03;13.23;;;;;;;;;;5007807;28;20550;-80
2022/03/04 04:18:12;;;;;;;37.10;13.97;;;;;;;;;;5011103;28;20512;-77
2022/03/04 04:20:39;;;;;;;39.40;13.07;;;;;;;;;;5021110;28;20529;-76
2022/03/04 04:23:08;;;;;;;35.27;13.17;;;;;;;;;;5020684;28;20479;-79
2022/03/04 04:25:35;;;;;;;32.07;12.03;;;;;;;;;;5023109;28;20535;-79
2022/03/04 04:28:02;;;;;;;36.43;12.67;;;;;;;;;;5022578;28;20474;-78
2022/03/04 04:30:30;;;;;;;40.43;13.93;;;;;;;;;;5017215;28;20470;-78
2022/03/04 04:32:57;;;;;;;41.63;12.90;;;;;;;;;;5012439;28;20487;-78
2022/03/04 04:35:24;;;;;;;33.80;12.33;;;;;;;;;;5013880;28;20519;-78
2022/03/04 04:37:51;;;;;;;39.73;13.57;;;;;;;;;;5015086;28;20563;-79
2022/03/04 04:40:20;;;;;;;35.50;12.30;;;;;;;;;;5015699;28;20522;-78
2022/03/04 04:42:47;;;;;;;39.57;12.80;;;;;;;;;;5017663;28;20531;-78
2022/03/04 04:45:14;;;;;;;36.13;13.03;;;;;;;;;;5015402;28;20912;-79
2022/03/04 04:47:41;;;;;;;36.37;12.23;;;;;;;;;;5006527;28;20950;-78
2022/03/04 04:50:09;;;;;;;34.67;12.00;;;;;;;;;;5000886;28;20921;-78
2022/03/04 04:52:36;;;;;;;36.17;12.77;;;;;;;;;;4999636;28;20502;-78
2022/03/04 04:55:04;;;;;;;39.13;13.90;;;;;;;;;;4996853;28;20539;-78
2022/03/04 04:57:33;;;;;;;37.63;12.97;;;;;;;;;;5000101;28;20930;-78
2022/03/04 05:00:00;;;;;;;37.87;13.70;;;;;;;;;;5004303;28;20497;-78
2022/03/04 05:02:27;;;;;;;36.80;12.63;;;;;;;;;;5000772;28;20490;-78
2022/03/04 05:04:55;;;;;;;39.77;13.47;;;;;;;;;;5005869;28;20468;-78
2022/03/04 05:07:22;;;;;;;32.20;11.60;;;;;;;;;;5010743;28;20468;-78
2022/03/04 05:09:49;;;;;;;38.00;13.50;;;;;;;;;;5005098;28;20491;-78
2022/03/04 05:12:16;;;;;;;32.77;12.60;;;;;;;;;;5004479;28;20503;-78
2022/03/04 05:14:45;;;;;;;37.23;12.60;;;;;;;;;;5005995;28;20520;-78
2022/03/04 05:17:12;;;;;;;36.97;12.27;;;;;;;;;;5004998;28;20452;-78
2022/03/04 05:19:39;;;;;;;34.67;11.83;;;;;;;;;;5006225;28;20464;-77
2022/03/04 05:22:06;;;;;;;33.67;12.27;;;;;;;;;;5003032;28;20479;-76
2022/03/04 05:24:33;;;;;;;31.77;11.60;;;;;;;;;;5005155;28;20530;-77
2022/03/04 05:27:01;;;;;;;37.10;13.03;;;;;;;;;;5007514;28;20501;-78
2022/03/04 05:29:28;;;;;;;35.33;12.17;;;;;;;;;;5005470;28;20493;-78
2022/03/04 05:31:57;;;;;;;33.90;12.30;;;;;;;;;;5005400;28;20898;-78
2022/03/04 05:34:24;;;;;;;34.77;11.43;;;;;;;;;;5001907;28;20501;-77
2022/03/04 05:36:52;;;;;;;34.97;12.00;;;;;;;;;;5005493;28;20467;-78
2022/03/04 05:39:19;;;;;;;40.27;13.30;;;;;;;;;;5000551;28;20462;-79
2022/03/04 05:41:46;;;;;;;39.43;12.77;;;;;;;;;;5001206;28;20459;-78
2022/03/04 05:44:14;;;;;;;39.53;13.17;;;;;;;;;;5004511;28;20505;-78
2022/03/04 05:46:41;;;;;;;37.93;12.07;;;;;;;;;;5004074;28;20823;-77
2022/03/04 05:49:10;;;;;;;41.90;12.53;;;;;;;;;;5006199;28;20492;-77
2022/03/04 05:51:37;;;;;;;35.30;12.97;;;;;;;;;;5003552;28;21023;-77
2022/03/04 05:54:04;;;;;;;34.27;12.20;;;;;;;;;;5005340;28;20455;-78
2022/03/04 05:56:33;;;;;;;35.70;12.93;;;;;;;;;;5000987;28;20468;-78
2022/03/04 05:59:00;;;;;;;37.80;13.50;;;;;;;;;;5000183;28;20547;-77
2022/03/04 06:01:27;;;;;;;38.87;12.83;;;;;;;;;;5004686;28;20464;-78
2022/03/04 06:03:55;;;;;;;31.70;11.43;;;;;;;;;;5006443;28;20582;-76
2022/03/04 06:06:25;;;;;;;38.43;13.27;;;;;;;;;;5001952;28;20474;-78
2022/03/04 06:08:52;;;;;;;34.60;12.63;;;;;;;;;;5001418;28;20566;-78
2022/03/04 06:11:20;;;;;;;43.03;13.80;;;;;;;;;;4999192;28;20500;-78
2022/03/04 06:13:47;;;;;;;37.23;13.30;;;;;;;;;;5001563;28;20487;-78
2022/03/04 06:16:14;;;;;;;41.17;13.03;;;;;;;;;;5007090;28;20571;-79
2022/03/04 06:18:41;;;;;;;37.93;13.40;;;;;;;;;;5006071;28;20464;-77
2022/03/04 06:21:08;;;;;;;40.93;14.73;;;;;;;;;;5001310;28;20938;-77
2022/03/04 06:23:37;;;;;;;41.50;12.60;;;;;;;;;;5003483;28;20504;-76
2022/03/04 06:26:04;;;;;;;38.80;13.63;;;;;;;;;;5005412;28;20487;-78
2022/03/04 06:28:31;;;;;;;34.00;11.57;;;;;;;;;;5002460;28;20943;-77
2022/03/04 06:30:59;;;;;;;36.73;12.83;;;;;;;;;;5002902;28;20525;-79
2022/03/04 06:33:32;;;;;;;37.03;13.97;;;;;;;;;;4998389;28;20483;-78
2022/03/04 06:36:04;;;;;;;36.80;12.67;;;;;;;;;;4996433;28;20451;-77
2022/03/04 06:38:32;;;;;;;32.73;12.70;;;;;;;;;;4995258;28;20450;-77
2022/03/04 06:41:01;;;;;;;36.83;13.43;;;;;;;;;;4994134;28;20896;-77
2022/03/04 06:43:28;;;;;;;43.90;13.80;;;;;;;;;;5001274;28;20541;-78
2022/03/04 06:45:57;;;;;;;42.53;13.43;;;;;;;;;;4995544;28;20452;-77
2022/03/04 06:48:24;;;;;;;40.83;13.47;;;;;;;;;;4998139;28;20471;-78
2022/03/04 06:50:51;;;;;;;36.67;13.03;;;;;;;;;;5001304;28;20591;-78
2022/03/04 06:53:18;;;;;;;51.40;13.77;;;;;;;;;;5001698;28;20471;-78
2022/03/04 06:55:46;;;;;;;37.67;13.90;;;;;;;;;;5006947;28;20460;-78
2022/03/04 06:58:16;;;;;;;36.80;13.97;;;;;;;;;;5003977;28;20635;-78
2022/03/04 07:00:43;;;;;;;44.47;15.60;;;;;;;;;;5006501;28;20501;-78
2022/03/04 07:03:10;;;;;;;43.17;15.80;;;;;;;;;;5008041;28;21013;-78
2022/03/04 07:05:38;;;;;;;58.77;16.97;;;;;;;;;;5006976;28;21380;-78
2022/03/04 07:08:07;;;;;;;42.90;15.70;;;;;;;;;;5008887;28;20464;-78
2022/03/04 07:10:34;;;;;;;46.60;15.50;;;;;;;;;;5006002;28;20526;-78
2022/03/04 07:13:02;;;;;;;42.83;15.93;;;;;;;;;;5001987;28;20583;-78
2022/03/04 07:15:31;;;;;;;43.57;15.90;;;;;;;;;;5002133;28;20479;-78
2022/03/04 07:17:58;;;;;;;48.87;15.63;;;;;;;;;;5001418;28;20471;-78
2022/03/04 07:20:25;;;;;;;44.93;15.83;;;;;;;;;;4998027;28;20462;-78
2022/03/04 07:22:54;;;;;;;49.37;15.13;;;;;;;;;;4996095;28;20474;-78
2022/03/04 07:25:21;;;;;;;41.43;15.60;;;;;;;;;;5004131;28;20480;-77
2022/03/04 07:27:49;;;;;;;42.07;15.03;;;;;;;;;;5012072;28;20947;-78
2022/03/04 07:30:17;;;;;;;50.10;14.73;;;;;;;;;;4995923;28;20488;-78
2022/03/04 07:32:46;;;;;;;47.50;14.63;;;;;;;;;;5000217;28;20561;-79
2022/03/04 07:35:14;;;;;;;65.60;20.33;;;;;;;;;;4996272;28;20559;-78
2022/03/04 07:37:41;;;;;;;70.60;21.37;;;;;;;;;;5004553;28;20495;-78
2022/03/04 07:40:09;;;;;;;50.50;17.03;;;;;;;;;;5006362;28;20479;-78
2022/03/04 07:42:37;;;;;;;45.30;16.30;;;;;;;;;;5003860;28;20483;-78
2022/03/04 07:45:04;;;;;;;41.93;17.17;;;;;;;;;;5002169;28;20831;-78
2022/03/04 07:47:31;;;;;;;47.37;16.67;;;;;;;;;;4999713;28;20887;-78
2022/03/04 07:50:00;;;;;;;38.70;15.63;;;;;;;;;;5002382;28;20985;-78
2022/03/04 07:52:31;;;;;;;50.00;16.30;;;;;;;;;;5005111;28;20472;-78
2022/03/04 07:54:58;;;;;;;49.43;16.30;;;;;;;;;;5003732;28;20467;-78
2022/03/04 07:57:26;;;;;;;46.13;18.40;;;;;;;;;;5005222;28;20455;-78
2022/03/04 07:59:53;;;;;;;51.10;18.40;;;;;;;;;;5001703;28;20451;-78
2022/03/04 08:02:20;;;;;;;40.03;15.63;;;;;;;;;;5003293;28;20632;-78
2022/03/04 08:04:47;;;;;;;35.07;15.43;;;;;;;;;;4996362;28;20292;-78
2022/03/04 08:07:17;;;;;;;37.30;15.77;;;;;;;;;;5001104;28;20268;-79
2022/03/04 08:09:44;;;;;;;35.00;15.77;;;;;;;;;;5003127;28;20616;-78
2022/03/04 08:12:12;;;;;;;31.97;14.73;;;;;;;;;;5003528;28;20256;-78
2022/03/04 08:14:39;;;;;;;34.87;15.87;;;;;;;;;;4997990;28;20240;-78
2022/03/04 08:17:07;;;;;;;34.90;15.67;;;;;;;;;;5005265;28;20204;-79
2022/03/04 08:19:35;;;;;;;31.17;14.83;;;;;;;;;;5002040;28;20228;-77
2022/03/04 08:22:03;;;;;;;35.07;15.27;;;;;;;;;;5002376;28;20671;-78
2022/03/04 08:24:32;;;;;;;38.97;15.73;;;;;;;;;;5006636;28;20272;-77
2022/03/04 08:26:59;;;;;;;30.50;15.77;;;;;;;;;;5009216;28;20209;-78
2022/03/04 08:29:26;;;;;;;34.77;16.37;;;;;;;;;;5008097;28;20241;-78
2022/03/04 08:31:54;;;;;;;31.10;15.53;;;;;;;;;;5001227;28;20307;-78
2022/03/04 08:34:21;;;;;;;34.00;15.00;;;;;;;;;;5003688;28;20223;-77
2022/03/04 08:36:49;;;;;;;34.37;15.83;;;;;;;;;;5007256;28;20239;-77
2022/03/04 08:39:17;;;;;;;34.70;16.47;;;;;;;;;;5006857;28;20220;-79
2022/03/04 08:41:45;;;;;;;35.50;16.70;;;;;;;;;;5006989;28;20312;-77
2022/03/04 08:44:13;;;;;;;39.40;16.80;;;;;;;;;;5005190;28;20277;-76
2022/03/04 08:46:40;;;;;;;38.30;16.77;;;;;;;;;;5012353;28;20224;-78
2022/03/04 08:49:09;;;;;;;38.43;15.40;;;;;;;;;;5000740;28;20208;-79
2022/03/04 08:51:37;;;;;;;35.70;16.20;;;;;;;;;;5007664;28;20217;-78
2022/03/04 08:54:05;;;;;;;35.27;16.47;;;;;;;;;;4999319;28;20217;-79
2022/03/04 08:56:33;;;;;;;31.60;15.43;;;;;;;;;;5002475;28;20296;-78
2022/03/04 08:59:01;;;;;;;37.43;16.20;;;;;;;;;;5000355;28;20216;-76
2022/03/04 09:01:28;;;;;;;34.20;16.37;;;;;;;;;;5005652;28;20216;-78
2022/03/04 09:03:56;;;;;;;35.47;16.37;;;;;;;;;;5004545;28;20603;-78
2022/03/04 09:06:23;;;;;;;35.07;16.10;;;;;;;;;;5006326;28;20295;-78
2022/03/04 09:08:50;;;;;;;36.87;15.77;;;;;;;;;;5005396;28;20212;-76
2022/03/04 09:11:17;;;;;;;34.07;16.17;;;;;;;;;;5002783;28;20322;-78
2022/03/04 09:13:45;;;;;;;37.67;16.93;;;;;;;;;;5003231;28;20352;-78
2022/03/04 09:16:13;;;;;;;34.27;16.10;;;;;;;;;;4999525;28;20605;-78
2022/03/04 09:18:40;;;;;;;35.43;16.73;;;;;;;;;;5001442;28;20611;-79
2022/03/04 09:21:08;;;;;;;37.03;16.33;;;;;;;;;;5000566;28;20743;-78
2022/03/04 09:23:35;;;;;;;34.90;16.03;;;;;;;;;;4997371;28;20240;-78
2022/03/04 09:26:09;;;;;;;44.03;17.03;;;;;;;;;;4999462;28;20205;-77
2022/03/04 09:28:37;;;;;;;35.37;16.27;;;;;;;;;;5026002;28;20213;-78
2022/03/04 09:31:08;;;;;;;37.40;16.93;;;;;;;;;;5008337;28;20224;-78
2022/03/04 09:33:38;;;;;;;44.77;17.57;;;;;;;;;;5032571;28;20281;-79
2022/03/04 09:36:11;;;;;;;33.17;16.03;;;;;;;;;;5017270;28;20227;-80
2022/03/04 09:38:39;;;;;;;38.07;16.47;;;;;;;;;;5004981;28;20207;-76
2022/03/04 09:41:06;;;;;;;39.27;16.30;;;;;;;;;;5007233;28;20239;-77
2022/03/04 09:43:34;;;;;;;37.47;15.37;;;;;;;;;;5001997;28;20236;-77
2022/03/04 09:46:01;;;;;;;38.27;16.83;;;;;;;;;;4997642;28;20742;-77
2022/03/04 09:48:28;;;;;;;39.63;17.33;;;;;;;;;;5004635;28;20292;-78
2022/03/04 09:50:57;;;;;;;42.20;17.87;;;;;;;;;;5002207;28;20311;-77
2022/03/04 09:53:26;;;;;;;40.23;16.60;;;;;;;;;;4998006;28;20224;-77
2022/03/04 09:55:54;;;;;;;31.80;15.07;;;;;;;;;;4999923;28;20325;-78
2022/03/04 09:58:21;;;;;;;42.17;16.57;;;;;;;;;;5006901;28;20205;-78
2022/03/04 10:00:48;;;;;;;34.67;15.50;;;;;;;;;;5001043;28;20284;-78
2022/03/04 10:03:22;;;;;;;43.90;17.10;;;;;;;;;;5006108;28;20220;-77
2022/03/04 10:05:54;;;;;;;43.47;16.17;;;;;;;;;;5022823;28;20212;-78
2022/03/04 10:08:23;;;;;;;44.73;16.87;;;;;;;;;;5015793;28;20294;-76
2022/03/04 10:10:51;;;;;;;41.73;16.97;;;;;;;;;;5007502;28;20252;-76
2022/03/04 10:13:18;;;;;;;37.87;16.87;;;;;;;;;;5002256;28;20561;-77
2022/03/04 10:15:54;;;;;;;39.50;16.70;;;;;;;;;;5000061;28;20204;-78
2022/03/04 10:18:27;;;;;;;44.27;16.90;;;;;;;;;;5001131;28;20216;-76
2022/03/04 10:20:54;;;;;;;38.23;16.20;;;;;;;;;;5001053;28;20205;-79
2022/03/04 10:23:23;;;;;;;40.87;17.53;;;;;;;;;;5013010;28;20259;-76
2022/03/04 10:25:52;;;;;;;41.13;17.87;;;;;;;;;;4996835;28;20564;-77
2022/03/04 10:28:20;;;;;;;45.03;18.87;;;;;;;;;;5000178;28;20279;-78
2022/03/04 10:30:48;;;;;;;37.77;16.83;;;;;;;;;;5001128;28;20291;-78
2022/03/04 10:33:17;;;;;;;42.43;17.90;;;;;;;;;;5051076;22;21046;-78
2022/03/04 10:35:44;;;;;;;40.93;18.17;;;;;;;;;;5005517;28;20721;-78
2022/03/04 10:38:26;;;;;;;38.00;17.30;;;;;;;;;;5010192;28;20243;-79
2022/03/04 10:40:53;;;;;;;43.33;18.17;;;;;;;;;;5011158;28;20196;-79
2022/03/04 10:43:24;;;;;;;38.43;17.80;;;;;;;;;;5012100;28;20275;-79
2022/03/04 10:46:13;;;;;;;39.77;17.57;;;;;;;;;;5013454;28;20208;-78
2022/03/04 10:48:51;;;;;;;41.10;16.90;;;;;;;;;;4999969;28;20232;-78
2022/03/04 10:51:33;;;;;;;47.10;18.53;;;;;;;;;;5010732;28;20223;-78
2022/03/04 10:54:13;;;;;;;42.07;18.40;;;;;;;;;;5017688;28;20208;-80
2022/03/04 10:56:51;;;;;;;39.43;17.93;;;;;;;;;;5003269;28;20208;-77
2022/03/04 10:59:18;;;;;;;40.20;17.40;;;;;;;;;;5002779;28;20204;-78
2022/03/04 11:01:49;;;;;;;44.13;19.37;;;;;;;;;;5009176;28;20225;-80
2022/03/04 11:04:18;;;;;;;40.07;17.97;;;;;;;;;;5014970;28;20283;-79
2022/03/04 11:06:46;;;;;;;49.23;19.87;;;;;;;;;;5014360;28;20212;-78
2022/03/04 11:09:16;;;;;;;42.40;18.77;;;;;;;;;;5013743;28;20215;-79
2022/03/04 11:11:44;;;;;;;47.67;19.47;;;;;;;;;;5020553;28;20225;-80
2022/03/04 11:14:12;;;;;;;45.43;18.47;;;;;;;;;;5001896;28;20630;-79
2022/03/04 11:16:39;;;;;;;45.43;19.20;;;;;;;;;;5011917;28;20227;-78
2022/03/04 11:19:27;;;;;;;41.53;18.83;;;;;;;;;;5026441;28;20210;-78
2022/03/04 11:21:55;;;;;;;43.40;19.07;;;;;;;;;;5004379;28;20205;-77
2022/03/04 11:24:36;;;;;;;37.27;17.87;;;;;;;;;;5009850;28;20216;-77
2022/03/04 11:27:06;;;;;;;47.70;18.73;;;;;;;;;;5001019;28;20254;-77
2022/03/04 11:29:34;;;;;;;42.87;19.13;;;;;;;;;;5004879;28;20219;-76
2022/03/04 11:32:02;;;;;;;45.20;19.80;;;;;;;;;;5009237;28;20595;-78
2022/03/04 11:34:34;;;;;;;37.93;17.97;;;;;;;;;;5009578;28;20679;-76
2022/03/04 11:37:05;;;;;;;38.07;17.47;;;;;;;;;;5008324;28;20782;-78
2022/03/04 11:39:53;;;;;;;38.57;17.37;;;;;;;;;;5005986;28;20708;-79
2022/03/04 11:42:20;;;;;;;42.70;17.83;;;;;;;;;;5001663;28;20239;-77
2022/03/04 11:44:58;;;;;;;40.70;18.83;;;;;;;;;;5022986;28;20208;-76
2022/03/04 11:47:27;;;;;;;38.43;18.20;;;;;;;;;;5017776;28;20264;-77
2022/03/04 11:49:55;;;;;;;49.40;19.50;;;;;;;;;;4996948;28;20205;-78
2022/03/04 11:52:26;;;;;;;40.63;17.87;;;;;;;;;;5005385;28;20237;-77
2022/03/04 11:55:20;;;;;;;42.93;17.77;;;;;;;;;;5007277;28;20203;-78
2022/03/04 11:57:48;;;;;;;46.33;19.80;;;;;;;;;;5005205;28;20212;-78
2022/03/04 12:00:29;;;;;;;42.37;18.43;;;;;;;;;;5009505;28;20212;-79
2022/03/04 12:02:56;;;;;;;47.57;19.47;;;;;;;;;;5008075;28;20224;-76
2022/03/04 12:05:26;;;;;;;41.37;17.93;;;;;;;;;;5007007;28;20207;-78
2022/03/04 12:08:08;;;;;;;43.47;18.43;;;;;;;;;;5005013;28;20212;-78
2022/03/04 12:10:41;;;;;;;43.00;17.83;;;;;;;;;;5009172;28;20292;-77
2022/03/04 12:13:09;;;;;;;41.23;17.20;;;;;;;;;;5008832;28;20228;-76
2022/03/04 12:15:38;;;;;;;42.20;18.67;;;;;;;;;;5008675;28;20315;-78
2022/03/04 12:18:07;;;;;;;43.63;18.83;;;;;;;;;;5010703;28;20234;-77
2022/03/04 12:20:49;;;;;;;42.07;17.70;;;;;;;;;;5016475;28;20561;-76
2022/03/04 12:23:18;;;;;;;40.67;18.40;;;;;;;;;;5010994;28;20229;-76
2022/03/04 12:26:04;;;;;;;37.53;17.20;;;;;;;;;;5028005;28;20252;-76
2022/03/04 12:28:36;;;;;;;37.53;16.73;;;;;;;;;;5012959;28;20211;-76
2022/03/04 12:31:16;;;;;;;44.60;18.63;;;;;;;;;;5023066;28;20259;-76
2022/03/04 12:33:44;;;;;;;39.53;17.17;;;;;;;;;;5017020;28;20221;-77
2022/03/04 12:36:12;;;;;;;43.53;16.80;;;;;;;;;;5015363;28;20277;-77
2022/03/04 12:38:40;;;;;;;38.80;16.70;;;;;;;;;;5010851;28;20205;-77
2022/03/04 12:41:14;;;;;;;39.37;17.17;;;;;;;;;;5011573;28;20220;-76
2022/03/04 12:43:42;;;;;;;36.57;16.77;;;;;;;;;;5017985;28;20232;-76
2022/03/04 12:46:10;;;;;;;37.40;16.40;;;;;;;;;;5004322;28;20232;-77
2022/03/04 12:48:37;;;;;;;32.70;15.07;;;;;;;;;;5010529;28;20412;-77
2022/03/04 12:51:18;;;;;;;43.90;15.60;;;;;;;;;;5004551;28;20278;-78
2022/03/04 12:53:45;;;;;;;34.83;14.93;;;;;;;;;;5002393;28;20224;-78
2022/03/04 12:56:17;;;;;;;37.23;14.67;;;;;;;;;;5004200;28;20212;-78
2022/03/04 12:58:46;;;;;;;34.97;14.93;;;;;;;;;;5005054;28;20250;-77
2022/03/04 13:01:13;;;;;;;30.83;15.03;;;;;;;;;;5008788;28;20224;-78
2022/03/04 13:03:44;;;;;;;29.77;14.57;;;;;;;;;;5016072;28;20311;-76
2022/03/04 13:06:11;;;;;;;34.23;13.07;;;;;;;;;;5007191;28;20287;-78
2022/03/04 13:08:46;;;;;;;31.40;12.40;;;;;;;;;;5009656;28;20685;-78
2022/03/04 13:11:13;;;;;;;29.83;12.97;;;;;;;;;;5006569;28;20252;-78
2022/03/04 13:13:49;;;;;;;34.33;14.30;;;;;;;;;;5005269;28;20323;-78
2022/03/04 13:16:25;;;;;;;34.97;15.03;;;;;;;;;;5005779;28;20209;-79
2022/03/04 13:18:52;;;;;;;28.03;12.57;;;;;;;;;;5004113;28;20211;-77
2022/03/04 13:21:20;;;;;;;37.27;15.13;;;;;;;;;;5010307;28;20196;-79
2022/03/04 13:23:54;;;;;;;35.57;14.60;;;;;;;;;;5007701;28;20233;-79
2022/03/04 13:26:24;;;;;;;31.03;14.30;;;;;;;;;;5007888;28;20302;-75
2022/03/04 13:28:53;;;;;;;33.73;14.83;;;;;;;;;;5009789;28;20209;-78
2022/03/04 13:34:27;;;;;;;36.50;15.90;;;;;;;;;;5014606;28;20216;-77
2022/03/04 13:36:56;;;;;;;31.80;14.23;;;;;;;;;;5000784;28;20944;-77
2022/03/04 13:39:27;;;;;;;34.80;15.30;;;;;;;;;;4996722;28;20216;-76
2022/03/04 13:42:14;;;;;;;33.73;14.80;;;;;;;;;;4996779;28;20263;-77
2022/03/04 13:45:05;;;;;;;33.93;14.80;;;;;;;;;;4999969;28;20279;-76
2022/03/04 13:47:40;;;;;;;33.07;13.70;;;;;;;;;;4974992;28;20216;-77
2022/03/04 13:50:25;;;;;;;34.47;13.87;;;;;;;;;;4996803;28;20208;-76
2022/03/04 13:52:57;;;;;;;32.17;14.40;;;;;;;;;;5002017;28;20774;-77
2022/03/04 13:55:35;;;;;;;33.50;13.63;;;;;;;;;;5005030;28;20204;-77
2022/03/04 13:58:18;;;;;;;32.50;14.73;;;;;;;;;;4999735;28;20209;-77
2022/03/04 14:00:46;;;;;;;33.63;15.40;;;;;;;;;;5005417;28;20629;-77
2022/03/04 14:03:23;;;;;;;31.13;13.70;;;;;;;;;;5015429;28;20229;-77
2022/03/04 14:05:58;;;;;;;31.03;13.47;;;;;;;;;;5003526;28;20208;-77
2022/03/04 14:08:25;;;;;;;34.30;13.23;;;;;;;;;;5004492;28;20350;-78
2022/03/04 14:10:53;;;;;;;31.90;13.43;;;;;;;;;;5003583;28;20681;-77
2022/03/04 14:13:21;;;;;;;29.80;14.03;;;;;;;;;;4997454;28;20732;-77
2022/03/04 14:15:49;;;;;;;32.97;13.20;;;;;;;;;;4997577;28;20690;-77
2022/03/04 14:18:19;;;;;;;34.20;13.37;;;;;;;;;;5002341;28;20272;-78
2022/03/04 14:23:41;;;;;;;24.97;11.47;;;;;;;;;;5018517;28;20320;-77
2022/03/04 14:26:09;;;;;;;23.40;10.33;;;;;;;;;;5010689;28;20287;-77
2022/03/04 14:28:37;;;;;;;23.00;10.37;;;;;;;;;;4998195;28;20212;-77
2022/03/04 14:31:06;;;;;;;23.30;10.63;;;;;;;;;;4999900;28;20211;-77